createdAt,value
2023-12-15T00:00:39.387Z,101730.95
2023-12-15T00:03:22.846Z,101737.63
2023-12-15T00:05:30.991Z,101742.02
2023-12-15T00:07:39.549Z,101746.56
2023-12-15T00:09:47.971Z,101751.72
2023-12-15T00:11:55.961Z,101752.22
2023-12-15T00:14:04.041Z,101756.73
2023-12-15T00:16:12.366Z,101762.33
2023-12-15T00:18:20.497Z,101763.11
2023-12-15T00:20:28.706Z,101768.23
2023-12-15T00:22:36.782Z,101775.65
2023-12-15T00:24:45.138Z,101781.05
2023-12-15T00:26:53.143Z,101786.66
2023-12-15T00:29:01.192Z,101788.84
2023-12-15T00:31:09.605Z,101789.34
2023-12-15T00:33:17.711Z,101791.60
2023-12-15T00:35:25.855Z,101791.51
2023-12-15T00:37:34.119Z,101786.92
2023-12-15T00:39:42.257Z,101787.10
2023-12-15T00:41:50.484Z,101793.39
2023-12-15T00:43:58.471Z,101796.28
2023-12-15T00:46:07.138Z,101797.63
2023-12-15T00:48:15.265Z,101800.69
2023-12-15T00:50:23.656Z,101804.45
2023-12-15T00:52:31.692Z,101805.67
2023-12-15T00:54:39.705Z,101808.33
2023-12-15T00:56:47.686Z,101811.52
2023-12-15T00:58:55.682Z,101815.82
2023-12-15T01:01:03.775Z,101819.65
2023-12-15T01:03:11.803Z,101821.09
2023-12-15T01:05:20.091Z,101823.58
2023-12-15T01:07:32.092Z,101827.11
2023-12-15T01:09:40.089Z,101832.64
2023-12-15T01:11:48.105Z,101839.13
2023-12-15T01:13:56.228Z,101839.16
2023-12-15T01:16:08.102Z,101839.38
2023-12-15T01:18:16.269Z,101839.00
2023-12-15T01:20:24.475Z,101844.21
2023-12-15T01:22:32.470Z,101844.92
2023-12-15T01:24:40.617Z,101845.52
2023-12-15T01:26:48.641Z,101843.25
2023-12-15T01:28:56.679Z,101840.38
2023-12-15T01:31:04.998Z,101845.15
2023-12-15T01:33:13.562Z,101842.29
2023-12-15T01:35:21.665Z,101847.46
2023-12-15T01:37:29.696Z,101842.95
2023-12-15T01:39:37.742Z,101847.16
2023-12-15T01:41:45.731Z,101842.30
2023-12-15T01:43:53.985Z,101843.06
2023-12-15T01:46:08.979Z,101847.34
2023-12-15T01:48:23.809Z,101844.60
2023-12-15T01:50:32.002Z,101847.23
2023-12-15T01:52:40.053Z,101841.00
2023-12-15T01:54:48.076Z,101843.54
2023-12-15T01:56:56.098Z,101848.88
2023-12-15T01:59:04.335Z,101855.88
2023-12-15T02:01:13.416Z,101858.91
2023-12-15T02:03:21.468Z,101860.61
2023-12-15T02:05:29.640Z,101853.33
2023-12-15T02:07:37.912Z,101861.89
2023-12-15T02:09:46.130Z,101854.88
2023-12-15T02:11:54.172Z,101855.98
2023-12-15T02:14:02.165Z,101857.97
2023-12-15T02:16:11.948Z,101857.35
2023-12-15T02:18:20.626Z,101862.46
2023-12-15T02:20:28.772Z,101867.10
2023-12-15T02:22:36.832Z,101873.66
2023-12-15T02:24:44.827Z,101872.77
2023-12-15T02:26:52.881Z,101876.10
2023-12-15T02:29:00.967Z,101882.95
2023-12-15T02:31:09.483Z,101886.09
2023-12-15T02:33:17.681Z,101884.23
2023-12-15T02:35:25.840Z,101885.16
2023-12-15T02:37:34.133Z,101885.97
2023-12-15T02:39:43.065Z,101892.05
2023-12-15T02:41:51.261Z,101895.91
2023-12-15T02:43:59.279Z,101896.74
2023-12-15T02:46:08.522Z,101903.88
2023-12-15T02:48:18.401Z,101907.66
2023-12-15T02:50:26.766Z,101914.19
2023-12-15T02:52:34.905Z,101919.19
2023-12-15T02:54:43.140Z,101924.32
2023-12-15T02:56:51.268Z,101925.73
2023-12-15T02:58:59.377Z,101935.85
2023-12-15T03:01:08.048Z,101937.07
2023-12-15T03:03:16.566Z,101942.50
2023-12-15T03:05:25.225Z,101940.04
2023-12-15T03:07:33.326Z,101945.73
2023-12-15T03:09:41.620Z,101948.89
2023-12-15T03:11:49.841Z,101952.98
2023-12-15T03:13:57.975Z,101954.48
2023-12-15T03:16:09.369Z,101958.33
2023-12-15T03:18:17.497Z,101962.92
2023-12-15T03:20:25.842Z,101960.21
2023-12-15T03:22:34.342Z,101962.24
2023-12-15T03:24:42.465Z,101967.83
2023-12-15T03:26:50.580Z,101969.02
2023-12-15T03:28:58.915Z,101970.21
2023-12-15T03:31:08.053Z,101970.09
2023-12-15T03:33:16.232Z,101969.52
2023-12-15T03:35:24.461Z,101977.45
2023-12-15T03:37:32.517Z,101979.26
2023-12-15T03:39:40.534Z,101979.35
2023-12-15T03:41:48.653Z,101975.17
2023-12-15T03:43:56.841Z,101979.65
2023-12-15T03:46:05.343Z,101975.89
2023-12-15T03:48:13.436Z,101973.73
2023-12-15T03:50:22.000Z,101977.28
2023-12-15T03:52:30.315Z,101985.02
2023-12-15T03:54:38.413Z,101987.70
2023-12-15T03:56:46.736Z,101986.80
2023-12-15T03:58:55.099Z,101995.74
2023-12-15T04:01:03.258Z,101994.17
2023-12-15T04:03:11.576Z,101998.18
2023-12-15T04:05:22.480Z,102000.30
2023-12-15T04:07:30.628Z,102002.22
2023-12-15T04:09:38.739Z,102008.15
2023-12-15T04:11:47.766Z,102011.55
2023-12-15T04:13:55.823Z,102018.45
2023-12-15T04:16:05.319Z,102025.81
2023-12-15T04:18:14.347Z,102028.27
2023-12-15T04:20:22.736Z,102032.21
2023-12-15T04:22:30.739Z,102037.88
2023-12-15T04:24:38.809Z,102035.80
2023-12-15T04:26:46.905Z,102038.60
2023-12-15T04:28:54.972Z,102041.77
2023-12-15T04:31:03.023Z,102040.17
2023-12-15T04:33:11.686Z,102044.02
2023-12-15T04:35:20.577Z,102043.85
2023-12-15T04:37:29.160Z,102040.37
2023-12-15T04:39:37.664Z,102037.27
2023-12-15T04:41:45.641Z,102037.78
2023-12-15T04:43:54.086Z,102039.90
2023-12-15T04:46:02.302Z,102042.09
2023-12-15T04:48:10.548Z,102041.81
2023-12-15T04:50:18.730Z,102042.89
2023-12-15T04:52:26.741Z,102041.27
2023-12-15T04:54:34.742Z,102046.83
2023-12-15T04:56:42.750Z,102050.73
2023-12-15T04:58:50.988Z,102055.16
2023-12-15T05:00:58.986Z,102056.70
2023-12-15T05:03:07.254Z,102056.77
2023-12-15T05:05:16.127Z,102062.04
2023-12-15T05:07:24.367Z,102060.52
2023-12-15T05:09:32.496Z,102062.03
2023-12-15T05:11:40.661Z,102068.63
2023-12-15T05:13:49.761Z,102065.58
2023-12-15T05:15:57.872Z,102070.66
2023-12-15T05:18:06.691Z,102076.65
2023-12-15T05:20:15.915Z,102080.39
2023-12-15T05:22:24.078Z,102081.19
2023-12-15T05:24:34.960Z,102081.75
2023-12-15T05:26:43.047Z,102082.16
2023-12-15T05:28:51.207Z,102082.79
2023-12-15T05:30:59.696Z,102087.81
2023-12-15T05:33:08.562Z,102091.45
2023-12-15T05:35:17.342Z,102096.27
2023-12-15T05:37:25.374Z,102100.02
2023-12-15T05:39:33.484Z,102100.27
2023-12-15T05:41:46.347Z,102105.52
2023-12-15T05:43:54.424Z,102106.50
2023-12-15T05:46:03.606Z,102105.64
2023-12-15T05:48:12.194Z,102110.13
2023-12-15T05:50:20.602Z,102115.42
2023-12-15T05:52:28.821Z,102120.68
2023-12-15T05:54:36.849Z,102116.19
2023-12-15T05:56:44.928Z,102114.38
2023-12-15T05:58:53.255Z,102114.30
2023-12-15T06:01:01.341Z,102112.18
2023-12-15T06:03:09.394Z,102112.36
2023-12-15T06:05:18.012Z,102121.52
2023-12-15T06:07:26.092Z,102123.26
2023-12-15T06:09:37.544Z,102125.17
2023-12-15T06:11:46.416Z,102129.58
2023-12-15T06:13:54.516Z,102129.52
2023-12-15T06:16:02.600Z,102129.85
2023-12-15T06:18:10.713Z,102130.05
2023-12-15T06:20:19.143Z,102137.02
2023-12-15T06:22:27.268Z,102139.98
2023-12-15T06:24:35.344Z,102139.92
2023-12-15T06:26:43.466Z,102141.70
2023-12-15T06:28:52.505Z,102142.25
2023-12-15T06:31:00.555Z,102151.52
2023-12-15T06:33:08.863Z,102151.54
2023-12-15T06:35:19.348Z,102156.36
2023-12-15T06:37:27.381Z,102160.91
2023-12-15T06:39:35.397Z,102168.29
2023-12-15T06:41:43.473Z,102167.39
2023-12-15T06:43:51.527Z,102172.67
2023-12-15T06:45:59.553Z,102173.73
2023-12-15T06:48:08.250Z,102181.26
2023-12-15T06:50:16.477Z,102181.67
2023-12-15T06:52:24.740Z,102189.34
2023-12-15T06:54:32.813Z,102191.96
2023-12-15T06:56:42.587Z,102188.86
2023-12-15T06:58:50.620Z,102186.39
2023-12-15T07:00:58.699Z,102187.39
2023-12-15T07:03:06.813Z,102188.64
2023-12-15T07:05:15.116Z,102189.43
2023-12-15T07:07:23.179Z,102189.88
2023-12-15T07:09:31.176Z,102191.08
2023-12-15T07:11:40.880Z,102189.60
2023-12-15T07:13:49.327Z,102198.54
2023-12-15T07:15:57.301Z,102199.88
2023-12-15T07:18:05.590Z,102204.12
2023-12-15T07:20:14.305Z,102206.64
2023-12-15T07:22:22.324Z,102214.50
2023-12-15T07:24:30.411Z,102214.02
2023-12-15T07:26:39.386Z,102215.71
2023-12-15T07:28:47.380Z,102219.59
2023-12-15T07:30:55.490Z,102224.95
2023-12-15T07:33:03.752Z,102232.77
2023-12-15T07:35:20.846Z,102232.23
2023-12-15T07:37:37.603Z,102236.02
2023-12-15T07:39:46.472Z,102237.87
2023-12-15T07:41:54.879Z,102241.75
2023-12-15T07:44:02.973Z,102245.41
2023-12-15T07:46:19.496Z,102243.68
2023-12-15T07:48:28.403Z,102252.46
2023-12-15T07:50:36.910Z,102253.56
2023-12-15T07:52:44.945Z,102253.98
2023-12-15T07:54:52.938Z,102262.05
2023-12-15T07:57:01.506Z,102263.23
2023-12-15T07:59:09.943Z,102267.58
2023-12-15T08:01:18.237Z,102271.27
2023-12-15T08:03:26.265Z,102275.58
2023-12-15T08:05:34.742Z,102277.52
2023-12-15T08:07:43.856Z,102281.33
2023-12-15T08:09:51.859Z,102281.64
2023-12-15T08:11:59.880Z,102285.87
2023-12-15T08:14:07.881Z,102287.84
2023-12-15T08:16:15.989Z,102286.80
2023-12-15T08:18:24.071Z,102291.48
2023-12-15T08:20:32.523Z,102295.69
2023-12-15T08:22:40.563Z,102292.85
2023-12-15T08:24:48.714Z,102297.88
2023-12-15T08:26:58.891Z,102297.50
2023-12-15T08:29:06.942Z,102298.40
2023-12-15T08:31:14.983Z,102300.04
2023-12-15T08:33:23.037Z,102300.73
2023-12-15T08:35:31.408Z,102300.40
2023-12-15T08:37:39.685Z,102306.17
2023-12-15T08:39:47.982Z,102300.36
2023-12-15T08:41:56.001Z,102283.62
2023-12-15T08:44:04.523Z,102274.93
2023-12-15T08:46:12.825Z,102278.63
2023-12-15T08:48:21.119Z,102280.70
2023-12-15T08:50:29.445Z,102283.31
2023-12-15T08:52:37.558Z,102283.36
2023-12-15T08:54:45.541Z,102287.98
2023-12-15T08:56:53.702Z,102298.89
2023-12-15T08:59:01.799Z,102304.36
2023-12-15T09:01:10.002Z,102297.60
2023-12-15T09:03:18.761Z,102311.95
2023-12-15T09:05:47.533Z,102319.43
2023-12-15T09:07:56.012Z,102324.98
2023-12-15T09:10:04.409Z,102326.48
2023-12-15T09:12:12.834Z,102329.74
2023-12-15T09:14:22.913Z,102336.23
2023-12-15T09:16:31.221Z,102334.66
2023-12-15T09:18:39.289Z,102343.42
2023-12-15T09:20:47.354Z,102345.91
2023-12-15T09:22:55.530Z,102344.27
2023-12-15T09:25:04.280Z,102335.09
2023-12-15T09:27:12.319Z,102333.36
2023-12-15T09:29:20.533Z,102332.95
2023-12-15T09:31:28.720Z,102339.09
2023-12-15T09:33:37.062Z,102353.16
2023-12-15T09:35:45.118Z,102363.30
2023-12-15T09:37:53.753Z,102365.79
2023-12-15T09:40:01.789Z,102361.19
2023-12-15T09:42:10.241Z,102363.08
2023-12-15T09:44:18.502Z,102360.54
2023-12-15T09:46:27.363Z,102361.48
2023-12-15T09:48:35.878Z,102354.71
2023-12-15T09:50:52.143Z,102355.84
2023-12-15T09:53:00.741Z,102355.57
2023-12-15T09:55:10.111Z,102355.27
2023-12-15T09:57:19.629Z,102355.30
2023-12-15T09:59:27.768Z,102358.43
2023-12-15T10:01:35.830Z,102361.67
2023-12-15T10:03:43.922Z,102361.52
2023-12-15T10:05:52.243Z,102363.30
2023-12-15T10:08:00.337Z,102364.79
2023-12-15T10:10:09.298Z,102367.84
2023-12-15T10:12:17.326Z,102369.30
2023-12-15T10:14:26.069Z,102363.60
2023-12-15T10:16:34.201Z,102364.47
2023-12-15T10:18:46.727Z,102367.40
2023-12-15T10:20:57.619Z,102370.45
2023-12-15T10:23:07.637Z,102365.12
2023-12-15T10:25:24.955Z,102371.31
2023-12-15T10:27:33.051Z,102371.96
2023-12-15T10:29:42.489Z,102374.10
2023-12-15T10:31:52.529Z,102374.13
2023-12-15T10:34:04.073Z,102386.77
2023-12-15T10:36:16.942Z,102393.18
2023-12-15T10:38:24.951Z,102392.52
2023-12-15T10:40:33.180Z,102399.41
2023-12-15T10:42:42.549Z,102392.77
2023-12-15T10:44:50.901Z,102393.05
2023-12-15T10:47:00.272Z,102394.77
2023-12-15T10:49:09.354Z,102391.64
2023-12-15T10:51:17.657Z,102395.26
2023-12-15T10:53:26.948Z,102393.30
2023-12-15T10:55:36.309Z,102402.77
2023-12-15T10:57:44.783Z,102401.33
2023-12-15T10:59:53.193Z,102400.30
2023-12-15T11:02:01.337Z,102403.90
2023-12-15T11:04:22.701Z,102409.52
2023-12-15T11:06:33.479Z,102412.92
2023-12-15T11:08:42.411Z,102410.75
2023-12-15T11:10:52.781Z,102408.69
2023-12-15T11:13:01.591Z,102409.53
2023-12-15T11:15:11.952Z,102407.38
2023-12-15T11:17:20.016Z,102409.13
2023-12-15T11:19:29.737Z,102409.48
2023-12-15T11:21:40.416Z,102410.35
2023-12-15T11:23:58.002Z,102408.27
2023-12-15T11:26:06.691Z,102404.48
2023-12-15T11:28:17.814Z,102395.95
2023-12-15T11:30:36.288Z,102395.65
2023-12-15T11:32:45.042Z,102393.17
2023-12-15T11:34:53.678Z,102387.98
2023-12-15T11:37:01.970Z,102387.26
2023-12-15T11:39:13.829Z,102380.71
2023-12-15T11:41:24.544Z,102385.50
2023-12-15T11:43:35.014Z,102394.52
2023-12-15T11:45:43.073Z,102398.04
2023-12-15T11:47:51.236Z,102399.04
2023-12-15T11:50:00.559Z,102406.15
2023-12-15T11:52:11.440Z,102403.30
2023-12-15T11:54:20.176Z,102397.36
2023-12-15T11:56:29.295Z,102393.91
2023-12-15T11:58:37.669Z,102390.79
2023-12-15T12:00:45.837Z,102385.31
2023-12-15T12:02:53.887Z,102381.45
2023-12-15T12:05:02.001Z,102374.35
2023-12-15T12:07:12.924Z,102370.93
2023-12-15T12:09:21.030Z,102369.73
2023-12-15T12:11:29.068Z,102372.61
2023-12-15T12:13:40.636Z,102379.98
2023-12-15T12:15:57.365Z,102375.05
2023-12-15T12:18:05.546Z,102381.96
2023-12-15T12:20:14.936Z,102382.83
2023-12-15T12:22:22.986Z,102385.58
2023-12-15T12:24:31.031Z,102394.20
2023-12-15T12:26:39.587Z,102400.60
2023-12-15T12:28:50.629Z,102397.15
2023-12-15T12:30:59.883Z,102398.28
2023-12-15T12:33:08.160Z,102404.02
2023-12-15T12:35:16.493Z,102406.79
2023-12-15T12:37:24.505Z,102412.59
2023-12-15T12:39:32.493Z,102414.69
2023-12-15T12:41:41.005Z,102419.15
2023-12-15T12:43:48.984Z,102421.99
2023-12-15T12:45:56.984Z,102425.63
2023-12-15T12:48:05.782Z,102426.30
2023-12-15T12:50:14.605Z,102425.56
2023-12-15T12:52:22.854Z,102426.38
2023-12-15T12:54:30.849Z,102434.02
2023-12-15T12:56:50.451Z,102433.15
2023-12-15T12:59:06.224Z,102430.32
2023-12-15T13:01:14.512Z,102433.48
2023-12-15T13:03:22.724Z,102438.23
2023-12-15T13:05:30.937Z,102446.42
2023-12-15T13:07:38.998Z,102454.10
2023-12-15T13:09:47.147Z,102451.52
2023-12-15T13:11:55.160Z,102442.38
2023-12-15T13:14:05.263Z,102441.95
2023-12-15T13:16:16.075Z,102455.05
2023-12-15T13:18:24.221Z,102454.83
2023-12-15T13:20:32.516Z,102458.73
2023-12-15T13:22:45.739Z,102457.93
2023-12-15T13:24:59.841Z,102458.48
2023-12-15T13:27:08.850Z,102464.08
2023-12-15T13:29:16.876Z,102462.41
2023-12-15T13:31:25.088Z,102452.06
2023-12-15T13:33:33.544Z,102450.05
2023-12-15T13:35:42.178Z,102447.30
2023-12-15T13:37:50.236Z,102450.14
2023-12-15T13:39:59.647Z,102459.64
2023-12-15T13:42:08.349Z,102456.02
2023-12-15T13:44:16.543Z,102456.09
2023-12-15T13:46:24.661Z,102457.69
2023-12-15T13:48:32.910Z,102457.70
2023-12-15T13:50:41.004Z,102460.05
2023-12-15T13:52:49.094Z,102459.58
2023-12-15T13:54:57.909Z,102465.57
2023-12-15T13:57:06.717Z,102467.94
2023-12-15T13:59:14.803Z,102462.61
2023-12-15T14:01:23.193Z,102460.66
2023-12-15T14:03:31.761Z,102461.26
2023-12-15T14:05:40.281Z,102463.65
2023-12-15T14:07:48.619Z,102465.68
2023-12-15T14:09:56.623Z,102466.56
2023-12-15T14:12:05.577Z,102468.05
2023-12-15T14:14:13.580Z,102467.88
2023-12-15T14:16:28.113Z,102470.02
2023-12-15T14:18:43.325Z,102467.27
2023-12-15T14:20:52.449Z,102467.35
2023-12-15T14:23:00.407Z,102466.14
2023-12-15T14:25:10.776Z,102467.74
2023-12-15T14:27:19.031Z,102467.55
2023-12-15T14:29:27.644Z,102470.61
2023-12-15T14:31:35.922Z,102470.48
2023-12-15T14:33:44.396Z,102466.52
2023-12-15T14:35:52.583Z,102466.95
2023-12-15T14:38:00.692Z,102466.95
2023-12-15T14:40:13.607Z,102464.05
2023-12-15T14:42:21.666Z,102464.24
2023-12-15T14:44:29.681Z,102465.35
2023-12-15T14:46:38.012Z,102458.12
2023-12-15T14:48:46.177Z,102454.62
2023-12-15T14:50:54.669Z,102458.45
2023-12-15T14:53:02.678Z,102457.98
2023-12-15T14:55:11.486Z,102462.38
2023-12-15T14:57:19.510Z,102460.96
2023-12-15T14:59:27.606Z,102465.35
2023-12-15T15:01:35.747Z,102469.98
2023-12-15T15:03:48.877Z,102472.64
2023-12-15T15:05:57.650Z,102479.23
2023-12-15T15:08:06.006Z,102478.83
2023-12-15T15:10:14.750Z,102476.79
2023-12-15T15:12:22.920Z,102474.52
2023-12-15T15:14:31.094Z,102470.60
2023-12-15T15:16:39.325Z,102475.95
2023-12-15T15:18:47.380Z,102479.45
2023-12-15T15:20:55.438Z,102487.25
2023-12-15T15:23:03.473Z,102484.25
2023-12-15T15:25:12.243Z,102483.05
2023-12-15T15:27:20.212Z,102482.91
2023-12-15T15:29:28.279Z,102487.52
2023-12-15T15:31:36.333Z,102491.80
2023-12-15T15:33:44.447Z,102493.64
2023-12-15T15:35:52.547Z,102497.35
2023-12-15T15:38:00.557Z,102498.98
2023-12-15T15:40:12.332Z,102502.77
2023-12-15T15:42:20.744Z,102502.10
2023-12-15T15:44:30.348Z,102496.42
2023-12-15T15:46:38.356Z,102494.75
2023-12-15T15:48:46.488Z,102498.34
2023-12-15T15:50:54.450Z,102501.77
2023-12-15T15:53:03.938Z,102501.96
2023-12-15T15:55:16.478Z,102496.50
2023-12-15T15:57:24.504Z,102493.71
2023-12-15T15:59:32.480Z,102495.20
2023-12-15T16:01:43.644Z,102496.14
2023-12-15T16:03:52.897Z,102500.41
2023-12-15T16:06:00.962Z,102502.76
2023-12-15T16:08:09.011Z,102500.94
2023-12-15T16:10:17.466Z,102499.02
2023-12-15T16:12:25.765Z,102497.38
2023-12-15T16:14:34.103Z,102497.88
2023-12-15T16:16:42.234Z,102497.50
2023-12-15T16:18:50.723Z,102496.05
2023-12-15T16:20:58.812Z,102491.77
2023-12-15T16:23:06.967Z,102494.05
2023-12-15T16:25:15.089Z,102492.48
2023-12-15T16:27:23.127Z,102492.70
2023-12-15T16:29:31.092Z,102488.38
2023-12-15T16:31:39.534Z,102488.17
2023-12-15T16:33:47.747Z,102495.20
2023-12-15T16:35:55.908Z,102495.80
2023-12-15T16:38:05.714Z,102499.89
2023-12-15T16:40:15.086Z,102497.36
2023-12-15T16:42:23.281Z,102494.05
2023-12-15T16:44:31.318Z,102499.98
2023-12-15T16:46:39.315Z,102508.19
2023-12-15T16:48:53.485Z,102514.20
2023-12-15T16:51:02.029Z,102518.41
2023-12-15T16:53:10.136Z,102517.98
2023-12-15T16:55:18.229Z,102514.02
2023-12-15T16:57:26.262Z,102513.17
2023-12-15T16:59:34.499Z,102519.81
2023-12-15T17:01:42.701Z,102520.59
2023-12-15T17:03:50.921Z,102525.80
2023-12-15T17:05:59.477Z,102523.56
2023-12-15T17:08:08.988Z,102530.55
2023-12-15T17:10:17.306Z,102532.20
2023-12-15T17:12:25.479Z,102532.90
2023-12-15T17:14:33.599Z,102532.34
2023-12-15T17:16:42.016Z,102532.02
2023-12-15T17:18:51.696Z,102532.95
2023-12-15T17:20:59.915Z,102535.43
2023-12-15T17:23:08.240Z,102529.43
2023-12-15T17:25:16.771Z,102533.98
2023-12-15T17:27:25.920Z,102536.55
2023-12-15T17:29:43.590Z,102539.84
2023-12-15T17:31:55.362Z,102537.55
2023-12-15T17:34:04.490Z,102534.93
2023-12-15T17:36:13.336Z,102531.54
2023-12-15T17:38:21.560Z,102527.95
2023-12-15T17:40:29.665Z,102533.61
2023-12-15T17:42:37.714Z,102526.83
2023-12-15T17:44:45.830Z,102537.14
2023-12-15T17:46:53.945Z,102543.07
2023-12-15T17:49:02.584Z,102545.27
2023-12-15T17:51:11.452Z,102541.68
2023-12-15T17:53:19.948Z,102535.73
2023-12-15T17:55:28.108Z,102532.80
2023-12-15T17:57:36.620Z,102529.89
2023-12-15T17:59:44.923Z,102530.89
2023-12-15T18:01:53.360Z,102523.77
2023-12-15T18:04:01.840Z,102527.86
2023-12-15T18:06:11.714Z,102531.23
2023-12-15T18:08:19.878Z,102540.05
2023-12-15T18:10:28.196Z,102537.91
2023-12-15T18:12:36.347Z,102534.79
2023-12-15T18:14:45.913Z,102541.49
2023-12-15T18:16:54.089Z,102543.98
2023-12-15T18:19:02.152Z,102543.19
2023-12-15T18:21:10.279Z,102541.61
2023-12-15T18:23:18.710Z,102546.63
2023-12-15T18:25:27.613Z,102550.72
2023-12-15T18:27:38.458Z,102552.73
2023-12-15T18:30:22.946Z,102563.51
2023-12-15T18:32:31.147Z,102562.61
2023-12-15T18:34:39.488Z,102568.40
2023-12-15T18:36:47.669Z,102570.31
2023-12-15T18:38:56.098Z,102579.39
2023-12-15T18:41:04.319Z,102577.00
2023-12-15T18:43:12.476Z,102579.20
2023-12-15T18:45:20.580Z,102582.55
2023-12-15T18:47:28.622Z,102593.63
2023-12-15T18:49:36.766Z,102601.93
2023-12-15T18:51:45.213Z,102599.04
2023-12-15T18:53:59.778Z,102601.56
2023-12-15T18:56:16.750Z,102605.20
2023-12-15T18:58:24.745Z,102608.44
2023-12-15T19:01:45.920Z,102605.66
2023-12-15T19:03:54.073Z,102607.66
2023-12-15T19:06:02.076Z,102608.30
2023-12-15T19:08:10.126Z,102609.98
2023-12-15T19:10:18.720Z,102609.50
2023-12-15T19:12:28.110Z,102613.52
2023-12-15T19:14:36.476Z,102612.73
2023-12-15T19:16:44.443Z,102612.17
2023-12-15T19:18:53.661Z,102610.44
2023-12-15T19:21:01.875Z,102605.46
2023-12-15T19:23:09.916Z,102599.67
2023-12-15T19:25:18.582Z,102603.42
2023-12-15T19:27:27.199Z,102599.81
2023-12-15T19:29:35.234Z,102606.83
2023-12-15T19:31:43.789Z,102616.43
2023-12-15T19:33:53.278Z,102628.71
2023-12-15T19:36:01.350Z,102626.95
2023-12-15T19:38:09.433Z,102627.40
2023-12-15T19:40:17.889Z,102628.54
2023-12-15T19:42:25.882Z,102633.46
2023-12-15T19:44:33.847Z,102637.39
2023-12-15T19:46:41.905Z,102639.05
2023-12-15T19:48:50.062Z,102636.79
2023-12-15T19:50:58.220Z,102638.91
2023-12-15T19:53:06.446Z,102644.30
2023-12-15T19:55:15.394Z,102645.61
2023-12-15T19:57:23.831Z,102645.36
2023-12-15T19:59:31.955Z,102651.22
2023-12-15T20:01:41.218Z,102650.97
2023-12-15T20:03:49.485Z,102653.50
2023-12-15T20:05:57.606Z,102652.88
2023-12-15T20:08:05.872Z,102652.24
2023-12-15T20:10:14.442Z,102652.07
2023-12-15T20:12:22.430Z,102646.19
2023-12-15T20:14:30.389Z,102640.20
2023-12-15T20:16:38.872Z,102634.15
2023-12-15T20:18:48.105Z,102636.30
2023-12-15T20:20:56.316Z,102638.02
2023-12-15T20:23:04.371Z,102638.60
2023-12-15T20:25:12.761Z,102636.38
2023-12-15T20:27:20.833Z,102635.35
2023-12-15T20:29:28.809Z,102639.19
2023-12-15T20:31:36.975Z,102649.84
2023-12-15T20:33:45.381Z,102658.52
2023-12-15T20:35:53.512Z,102659.30
2023-12-15T20:38:01.959Z,102660.94
2023-12-15T20:40:14.065Z,102657.82
2023-12-15T20:42:22.526Z,102652.95
2023-12-15T20:44:30.527Z,102652.55
2023-12-15T20:46:38.492Z,102650.45
2023-12-15T20:48:46.993Z,102649.30
2023-12-15T20:50:56.949Z,102651.17
2023-12-15T20:53:05.011Z,102649.33
2023-12-15T20:55:14.535Z,102653.44
2023-12-15T20:57:22.651Z,102658.12
2023-12-15T20:59:30.643Z,102670.50
2023-12-15T21:01:39.023Z,102673.34
2023-12-15T21:03:47.120Z,102675.27
2023-12-15T21:05:55.307Z,102673.17
2023-12-15T21:08:03.945Z,102663.39
2023-12-15T21:10:12.700Z,102663.20
2023-12-15T21:12:20.732Z,102660.52
2023-12-15T21:14:28.740Z,102661.40
2023-12-15T21:16:39.136Z,102659.43
2023-12-15T21:18:47.178Z,102659.73
2023-12-15T21:20:55.367Z,102656.38
2023-12-15T21:23:03.404Z,102652.63
2023-12-15T21:25:12.074Z,102651.51
2023-12-15T21:27:20.230Z,102645.77
2023-12-15T21:29:29.328Z,102647.32
2023-12-15T21:31:37.420Z,102647.73
2023-12-15T21:33:45.572Z,102652.02
2023-12-15T21:35:56.546Z,102660.70
2023-12-15T21:38:05.796Z,102662.63
2023-12-15T21:40:14.740Z,102664.14
2023-12-15T21:42:23.046Z,102665.84
2023-12-15T21:44:31.035Z,102646.16
2023-12-15T21:46:41.704Z,102633.65
2023-12-15T21:48:49.879Z,102643.30
2023-12-15T21:50:58.171Z,102657.86
2023-12-15T21:53:06.386Z,102665.48
2023-12-15T21:55:14.739Z,102660.61
2023-12-15T21:57:22.744Z,102667.77
2023-12-15T21:59:30.710Z,102668.49
2023-12-15T22:01:39.501Z,102661.08
2023-12-15T22:03:49.265Z,102667.88
2023-12-15T22:05:57.450Z,102669.90
2023-12-15T22:08:07.511Z,102674.59
2023-12-15T22:10:15.729Z,102673.15
2023-12-15T22:12:23.894Z,102672.33
2023-12-15T22:14:39.364Z,102678.59
2023-12-15T22:16:50.388Z,102676.55
2023-12-15T22:18:58.516Z,102673.77
2023-12-15T22:21:07.059Z,102663.98
2023-12-15T22:23:15.044Z,102662.65
2023-12-15T22:25:23.261Z,102660.39
2023-12-15T22:27:31.310Z,102663.82
2023-12-15T22:29:40.565Z,102665.52
2023-12-15T22:31:48.942Z,102669.23
2023-12-15T22:33:57.117Z,102659.26
2023-12-15T22:36:05.521Z,102663.40
2023-12-15T22:38:13.568Z,102666.13
2023-12-15T22:40:22.345Z,102674.69
2023-12-15T22:42:30.826Z,102675.36
2023-12-15T22:44:39.989Z,102672.75
2023-12-15T22:46:48.087Z,102671.06
2023-12-15T22:48:56.216Z,102670.52
2023-12-15T22:51:06.745Z,102674.39
2023-12-15T22:53:15.313Z,102676.30
2023-12-15T22:55:23.368Z,102683.15
2023-12-15T22:57:31.397Z,102684.00
2023-12-15T22:59:39.404Z,102686.17
2023-12-15T23:01:48.771Z,102684.67
2023-12-15T23:03:56.981Z,102688.08
2023-12-15T23:06:06.430Z,102697.17
2023-12-15T23:08:14.531Z,102700.02
2023-12-15T23:10:23.070Z,102700.74
2023-12-15T23:12:31.145Z,102699.48
2023-12-15T23:14:41.376Z,102697.99
2023-12-15T23:16:50.025Z,102706.90
2023-12-15T23:18:58.333Z,102705.39
2023-12-15T23:21:12.647Z,102708.26
2023-12-15T23:23:27.341Z,102713.17
2023-12-15T23:25:35.368Z,102711.80
2023-12-15T23:27:43.637Z,102716.12
2023-12-15T23:29:51.907Z,102719.73
2023-12-15T23:31:59.911Z,102713.04
2023-12-15T23:34:08.355Z,102705.70
2023-12-15T23:36:18.169Z,102703.17
2023-12-15T23:38:26.165Z,102695.25
2023-12-15T23:40:34.204Z,102686.38
2023-12-15T23:42:42.419Z,102690.66
2023-12-15T23:44:50.834Z,102692.90
2023-12-15T23:46:58.849Z,102697.85
2023-12-15T23:49:07.021Z,102701.84
2023-12-15T23:51:16.706Z,102707.41
2023-12-15T23:53:25.207Z,102705.11
2023-12-15T23:55:33.185Z,102705.71
2023-12-15T23:57:42.103Z,102697.53
2023-12-15T23:59:50.609Z,102699.48
